Terminal Aerodrome Forecast
Issued by NWS

Home | Current Version | Previous Version | Text Only | Print | Product List | Glossary On
Versions: 1 2 3 4 5 6 7 8 9 10 11 12
000
FTUS45 KGGW 220500
TAFSDY
TAF
KSDY 220520Z 2206/2306 01006KT P6SM -SHRA FEW035 OVC060
     FM221200 05008KT P6SM BKN019 OVC045
     FM221800 06010KT P6SM VCSH BKN045 OVC060
      AMD LTD TO CLD VIS AND WIND=

USA.gov is the U.S. government's official web portal to all federal, state and local government web resources and services.